Nearby METAR Reports

 

KTTN - Trenton, New Jersey, USA
Distance from station: WNW 11mi, 17km
Updated: Sat, 29-Jan-2022 3:53am EST
Snow, Freezing, Fog, Overcast
Snow, Freezing, Fog, Overcast
 Wind from N
Wind: N 18 mph , 30 km/h, Gust: 29 mph , 46 km/h
Temperature: 25°F , -4°C
Wind Chill: 11°F , -12°C
Dew Point: 21°F , -6°C
Humidity: 86%
Barometer: 29.78 inHg , 1008.5 hPa
Summary: Snow, Freezing, Fog
Clouds: Overcast
Visibility: 1/2 mile , 0.8 km
Cloud details: Overcast 800 ft
2022/01/29 08:53 KTTN 290853Z AUTO 36016G25KT 1/2SM SN FZFG VV008 M04/M06 A2978 RMK AO2 PK WND 01028/0832 SLP079 P0001 60002 T10441056 58026
KWRI - Wrightst/Mcguire, New Jersey, USA
Distance from station: SSE 14mi, 22km
Updated: Sat, 29-Jan-2022 3:56am EST
Light snow, Mist, Overcast
Light snow, Mist, Overcast
 Wind from N
Wind: N 23 mph , 37 km/h
Temperature: 25°F , -4°C
Wind Chill: 10°F , -12°C
Dew Point: 23°F , -5°C
Humidity: 93%
Barometer: 29.73 inHg , 1006.8 hPa
Summary: Light snow, Mist
Clouds: Overcast
Visibility: 3/4 mile , 1.2 km
Cloud details: Overcast 700 ft
2022/01/29 08:56 KWRI 290856Z 36020KT 3/4SM R06/4000V4500FT -SN BR OVC007 M04/M05 A2973 RMK AO2A PK WND 02029/02 CIG 006 RWY24 SLP069 60015 T10411049 57036
 
KNEL - Lakehurst Nas, New Jersey, USA
Distance from station: SE 21mi, 34km
Updated: Sat, 29-Jan-2022 4:00am EST
Heavy snow, Overcast
Heavy snow, Overcast
 Wind from N
Wind: N 12 mph , 19 km/h, Gust: 23 mph , 37 km/h
Temperature: 25°F , -4°C
Wind Chill: 14°F , -10°C
Dew Point: 21°F , -6°C
Humidity: 86%
Barometer: 29.70 inHg , 1005.8 hPa
Summary: Heavy Snow
Clouds: Overcast
Cloud details: Overcast 600 ft
2022/01/29 09:00 KNEL 290900Z AUTO 35010G20KT 310V010 +SN OVC006 M04/M06 A2970 RMK AO2 SLP058 P0000 60000 T10391056 56037 $
KPNE - Philadelphia/Ne, Pennsylvania, USA
Distance from station: WSW 22mi, 35km
Updated: Sat, 29-Jan-2022 3:54am EST
Mist, Overcast
Mist, Overcast
 Wind from N
Wind: N 18 mph , 30 km/h, Gust: 30 mph , 48 km/h
Temperature: 27°F , -3°C
Wind Chill: 14°F , -10°C
Dew Point: 21°F , -6°C
Humidity: 80%
Barometer: 29.81 inHg , 1009.5 hPa
Summary: Mist
Clouds: Overcast
Visibility: 3/4 mile , 1.2 km
Cloud details: Overcast 1000 ft
2022/01/29 08:54 KPNE 290854Z 01016G26KT 3/4SM BR VV010 M03/M06 A2981 RMK AO2 PK WND 02028/0812 SNEMM SLP095 P0002 60010 T10331056 56023 PWINO FZRANO RVRNO $
 
KVAY - Mount Holly, New Jersey, USA
Distance from station: SSW 22mi, 35km
Updated: Sat, 29-Jan-2022 3:54am EST
Snow, Freezing, Fog, Overcast
Snow, Freezing, Fog, Overcast
 Wind from N
Wind: N 21 mph , 33 km/h, Gust: 29 mph , 46 km/h
Temperature: 27°F , -3°C
Wind Chill: 13°F , -11°C
Dew Point: 23°F , -5°C
Humidity: 86%
Barometer: 29.76 inHg , 1007.8 hPa
Summary: Snow, Freezing, Fog
Clouds: Overcast
Visibility: 1/2 mile , 0.8 km
Cloud details: Overcast 700 ft
2022/01/29 08:54 KVAY 290854Z AUTO 36018G25KT 1/2SM SN FZFG VV007 M03/M05 A2976 RMK AO2 PK WND 01026/0815 SLP078 P0000 60000 T10281050 56031
KMJX - Toms River, New Jersey, USA
Distance from station: SE 26mi, 42km
Updated: Sat, 29-Jan-2022 3:56am EST
Snow, Freezing, Fog, Overcast
Snow, Freezing, Fog, Overcast
 Wind from N
Wind: N 14 mph , 22 km/h, Gust: 22 mph , 35 km/h
Temperature: 25°F , -4°C
Wind Chill: 13°F , -11°C
Dew Point: 25°F , -4°C
Humidity: 100%
Barometer: 29.70 inHg , 1005.8 hPa
Summary: Snow, Freezing, Fog
Clouds: Overcast
Visibility: 1/2 mile , 0.8 km
Cloud details: Overcast 500 ft
2022/01/29 08:56 KMJX 290856Z AUTO 35012G19KT 1/2SM SN FZFG OVC005 M04/M04 A2970 RMK AO2 PK WND 36026/0841 SLP061 P0000 60000 T10391044 58044 FZRANO
 
KDYL - Doylestown, Pennsylvania, USA
Distance from station: WNW 27mi, 43km
Updated: Sat, 29-Jan-2022 4:18am EST
Light snow, Overcast
Light snow, Overcast
 Wind from N
Wind: N 13 mph , 20 km/h, Gust: 21 mph , 33 km/h
Temperature: 25°F , -4°C
Wind Chill: 13°F , -11°C
Dew Point: 19°F , -7°C
Humidity: 80%
Barometer: 29.78 inHg , 1008.5 hPa
Summary: Light Snow
Clouds: Overcast
Visibility: 3/4 mile , 1.2 km
Cloud details: Overcast 1200 ft
2022/01/29 09:18 KDYL 290918Z AUTO 36011G18KT 3/4SM -SN VV012 M04/M07 A2978 RMK AO2 P0000 T10441072
KBLM - Belmar/Farmdale, New Jersey, USA
Distance from station: E 28mi, 45km
Updated: Sat, 29-Jan-2022 3:56am EST
Snow, Freezing, Fog, Overcast
Snow, Freezing, Fog, Overcast
 Wind from N
Wind: N 20 mph , 31 km/h, Gust: 26 mph , 43 km/h
Temperature: 25°F , -4°C
Wind Chill: 11°F , -12°C
Dew Point: 25°F , -4°C
Humidity: 100%
Barometer: 29.71 inHg , 1006.1 hPa
Summary: Snow, Freezing, Fog
Clouds: Overcast
Visibility: 1/2 mile , 0.8 km
Cloud details: Overcast 400 ft
2022/01/29 08:56 KBLM 290856Z AUTO 35017G23KT 1/2SM SN FZFG OVC004 M04/M04 A2971 RMK AO2 PK WND 35026/0757 SLP061 P0000 60000 T10391039 58049 FZRANO RVRNO
 
KSMQ - Somerville, New Jersey, USA
Distance from station: N 28mi, 45km
Updated: Sat, 29-Jan-2022 4:08am EST
Snow, Freezing, Fog, Overcast
Snow, Freezing, Fog, Overcast
 Wind from N
Wind: N 15 mph , 24 km/h, Gust: 22 mph , 35 km/h
Temperature: 25°F , -4°C
Wind Chill: 13°F , -11°C
Dew Point: 21°F , -6°C
Humidity: 86%
Barometer: 29.79 inHg , 1008.8 hPa
Summary: Snow, Freezing, Fog
Clouds: Overcast
Visibility: 1/2 mile , 0.8 km
Cloud details: Overcast 1300 ft
2022/01/29 09:08 KSMQ 290908Z AUTO 01013G19KT 1/2SM SN FZFG VV013 M04/M06 A2979 RMK AO2 P0001 T10441061
KLOM - Philly Wings F, Pennsylvania, USA
Distance from station: W 34mi, 54km
Updated: Sat, 29-Jan-2022 4:15am EST
Snow, Mist, Overcast
Snow, Mist, Overcast
 Wind from N
Wind: N 12 mph , 19 km/h, Gust: 17 mph , 28 km/h
Temperature: 23°F , -5°C
Wind Chill: 11°F , -12°C
Dew Point: 21°F , -6°C
Humidity: 93%
Barometer: 29.80 inHg , 1009.1 hPa
Summary: Snow, Mist
Clouds: Overcast
Visibility: 1 1/4 miles , 2 km
Cloud details: Overcast 1300 ft
2022/01/29 09:15 KLOM 290915Z AUTO 35010G15KT 320V020 1 1/4SM SN BR OVC013 M05/M06 A2980 RMK AO2 T10501063
 
KLDJ - Linden, New Jersey, USA
Distance from station: NE 35mi, 56km
Updated: Sat, 29-Jan-2022 4:15am EST
Overcast
Overcast
 Wind from NNE
Wind: NNE 20 mph , 31 km/h, Gust: 28 mph , 44 km/h
Temperature: 23°F , -5°C
Wind Chill: 8°F , -13°C
Dew Point: 21°F , -6°C
Humidity: 93%
Barometer: 29.77 inHg , 1008.1 hPa
Clouds: Overcast
Cloud details: Overcast 600 ft
2022/01/29 09:15 KLDJ 290915Z AUTO 02017G24KT OVC006 M05/M06 A2977 RMK AO2 T10461065 PWINO
KCKZ - Perkasie, Pennsylvania, USA
Distance from station: WNW 36mi, 58km
Updated: Sat, 29-Jan-2022 4:15am EST
Light snow, Overcast
Light snow, Overcast
 Wind from N
Wind: N 9 mph , 15 km/h, Gust: 22 mph , 35 km/h
Temperature: 21°F , -6°C
Wind Chill: 11°F , -12°C
Dew Point: 21°F , -6°C
Humidity: 100%
Barometer: 29.80 inHg , 1009.1 hPa
Summary: Light Snow
Clouds: Overcast
Visibility: 1 mile , 2 km
Cloud details: Overcast 300 ft
2022/01/29 09:15 KCKZ 290915Z AUTO 36008G19KT 320V030 1SM -SN OVC003 M06/M06 A2980 RMK AO2
 
KPHL - Philadelphia, Pennsylvania, USA
Distance from station: SW 40mi, 64km
Updated: Sat, 29-Jan-2022 3:54am EST
Light snow, Overcast
Light snow, Overcast
 Wind from N
Wind: N 20 mph , 31 km/h
Temperature: 28°F , -2°C
Wind Chill: 15°F , -9°C
Dew Point: 23°F , -5°C
Humidity: 80%
Barometer: 29.78 inHg , 1008.5 hPa
Summary: Light Snow
Clouds: Overcast
Visibility: 1 mile , 2 km
Cloud details: Partly cloudy 700 ft
Overcast 1200 ft
2022/01/29 08:54 KPHL 290854Z 36017KT 1SM R09R/5500VP6000FT -SN SCT007 OVC012 M02/M05 A2978 RMK AO2 PK WND 02033/0801 SLP084 P0002 60011 T10221050 56027
KEWR - Newark, New Jersey, USA
Distance from station: NE 41mi, 66km
Updated: Sat, 29-Jan-2022 3:51am EST
Snow, Blowing, Snow
Snow, Blowing, Snow
 Wind from N
Wind: N 25 mph , 41 km/h, Gust: 38 mph , 61 km/h
Temperature: 21°F , -6°C
Wind Chill: 4°F , -16°C
Dew Point: 21°F , -6°C
Humidity: 100%
Barometer: 29.78 inHg , 1008.5 hPa
Summary: Snow, Blowing
Clouds: Overcast
Visibility: 1/2 mile , 0.8 km
Cloud details: Overcast 900 ft
2022/01/29 08:51 KEWR 290851Z 36022G33KT 1/2SM R04R/4500V5000FT SN BLSN VV009 M06/M06 A2978 RMK AO2 PK WND 35033/0846 PRESFR SLP083 SNINCR 1/3 P0001 60008 T10561061 58039
 
KMMU - Morristown Muni, New Jersey, USA
Distance from station: NNE 41mi, 66km
Updated: Sat, 29-Jan-2022 4:15am EST
Light snow, Overcast
Light snow, Overcast
 Wind from N
Wind: N 13 mph , 20 km/h, Gust: 21 mph , 33 km/h
Temperature: 21°F , -6°C
Wind Chill: 8°F , -13°C
Dew Point: 18°F , -8°C
Humidity: 86%
Barometer: 29.80 inHg , 1009.1 hPa
Summary: Light Snow
Clouds: Overcast
Visibility: 1 mile , 2 km
Cloud details: Overcast 1200 ft
2022/01/29 09:15 KMMU 290915Z AUTO 35011G18KT 1SM -SN OVC012 M06/M08 A2980 RMK AO2
KUKT - Quakertown Arp, Pennsylvania, USA
Distance from station: WNW 42mi, 68km
Updated: Sat, 29-Jan-2022 4:15am EST
Mist
Mist
 Wind from varies
Wind: varies 7 mph , 11 km/h
Temperature: 21°F , -6°C
Wind Chill: 12°F , -11°C
Dew Point: 21°F , -6°C
Humidity: 100%
Barometer: 29.81 inHg , 1009.5 hPa
Summary: Mist
Visibility: 1 1/2 miles , 2.4 km
2022/01/29 09:15 KUKT 290915Z AUTO VRB06KT 1 1/2SM BR M06/M06 A2981 RMK A01
 
KJRB - Manhattan/Dwntwn, New York, USA
Distance from station: NE 47mi, 75km
Updated: Sat, 13-Nov-2021 12:56pm EST
NOT Current
Partly cloudy
Partly cloudy
 Wind from S
Wind: S 13 mph , 20 km/h, Gust: 21 mph , 33 km/h
Temperature: 63°F , 17°C
Dew Point: 50°F , 10°C
Humidity: 64%
Barometer: 29.65 inHg , 1004.1 hPa
Clouds: Partly cloudy
Visibility: 10 miles , 16 km
Cloud details: Partly cloudy 7000 ft
2021/11/13 17:56 KJRB 131756Z AUTO 19011G18KT 10SM SCT070 17/10 A2965 RMK AO2 LTG DSNT W AND NW SLPNO 6//// T01720100
KPTW - Pottstown, Pennsylvania, USA
Distance from station: W 48mi, 77km
Updated: Sat, 29-Jan-2022 3:54am EST
Light snow, Mist, Overcast
Light snow, Mist, Overcast
 Wind from N
Wind: N 15 mph , 24 km/h
Temperature: 19°F , -7°C
Wind Chill: 5°F , -15°C
Dew Point: 18°F , -8°C
Humidity: 93%
Barometer: 29.84 inHg , 1010.5 hPa
Summary: Light snow, Mist
Clouds: Overcast
Visibility: 1 mile , 2 km
Cloud details: Overcast 1800 ft
2022/01/29 08:54 KPTW 290854Z AUTO 35013KT 1SM -SN BR VV018 M07/M08 A2984 RMK AO2 SLP106 P0000 60000 T10671083 56018
 
KCDW - Caldwell, New Jersey, USA
Distance from station: NNE 50mi, 80km
Updated: Sat, 29-Jan-2022 4:26am EST
Light snow, Overcast
Light snow, Overcast
 Wind from NNE
Wind: NNE 9 mph , 15 km/h, Gust: 20 mph , 31 km/h
Temperature: 21°F , -6°C
Wind Chill: 11°F , -12°C
Dew Point: 16°F , -9°C
Humidity: 80%
Barometer: 29.81 inHg , 1009.5 hPa
Summary: Light Snow
Clouds: Overcast
Visibility: 3/4 mile , 1.2 km
Cloud details: Overcast 1400 ft
2022/01/29 09:26 KCDW 290926Z AUTO 02008G17KT 320V060 3/4SM -SN VV014 M06/M09 A2981 RMK AO2 P0001 T10561094